Time;durP1;ratioP1;P1;durP2;ratioP2;P2;SDS_P1;SDS_P2;PMS_P1;PMS_P2;Temp;Humidity;BMP_temperature;BMP_pressure;BME280_temperature;BME280_humidity;BME280_pressure;Samples;Min_cycle;Max_cycle;Signal;HPM_P1;HPM_P2
2021/06/09 00:04:42;;;;;;;29.40;26.70;;;18.40;99.90;;;;;;10473492;28;20216;-78
2021/06/09 00:09:43;;;;;;;29.97;27.30;;;18.40;99.90;;;;;;10482057;28;20222;-78
2021/06/09 00:14:47;;;;;;;29.83;26.83;;;18.30;99.90;;;;;;10483442;28;20248;-78
2021/06/09 00:19:48;;;;;;;29.40;26.57;;;18.30;99.90;;;;;;10475021;28;20213;-79
2021/06/09 00:24:50;;;;;;;28.63;26.10;;;18.30;99.90;;;;;;10478350;28;20216;-78
2021/06/09 00:29:53;;;;;;;29.43;26.93;;;18.20;99.90;;;;;;10468233;28;20213;-77
2021/06/09 00:34:54;;;;;;;30.60;27.80;;;18.20;99.90;;;;;;10471567;28;20308;-78
2021/06/09 00:39:56;;;;;;;32.13;27.20;;;18.20;99.90;;;;;;10488348;28;20209;-78
2021/06/09 00:44:59;;;;;;;29.77;27.07;;;18.20;99.90;;;;;;10476021;28;20299;-78
2021/06/09 00:50:01;;;;;;;30.80;27.83;;;18.20;99.90;;;;;;10489504;28;20660;-78
2021/06/09 00:55:03;;;;;;;29.80;27.20;;;18.20;99.90;;;;;;10489560;28;20240;-78
2021/06/09 01:00:10;;;;;;;30.10;27.27;;;18.20;99.90;;;;;;10488387;28;20215;-77
2021/06/09 01:05:12;;;;;;;31.20;28.30;;;18.20;99.90;;;;;;10494754;28;20219;-78
2021/06/09 01:10:13;;;;;;;29.57;26.90;;;18.20;99.90;;;;;;10493342;28;20209;-78
2021/06/09 01:15:18;;;;;;;30.97;28.03;;;18.20;99.90;;;;;;10498582;28;20769;-78
2021/06/09 01:20:20;;;;;;;30.30;27.30;;;18.20;99.90;;;;;;10498513;28;20693;-78
2021/06/09 01:25:24;;;;;;;31.77;28.77;;;18.30;99.90;;;;;;10500771;28;20266;-78
2021/06/09 01:30:26;;;;;;;23.10;21.00;;;18.30;99.90;;;;;;10499231;28;20208;-79
2021/06/09 01:35:28;;;;;;;28.40;25.90;;;18.20;99.90;;;;;;10499894;28;20307;-79
2021/06/09 01:40:31;;;;;;;31.60;28.60;;;18.20;99.90;;;;;;10500937;28;20208;-79
2021/06/09 01:45:36;;;;;;;30.93;28.00;;;18.20;99.90;;;;;;10498709;28;20597;-78
2021/06/09 01:50:39;;;;;;;33.30;30.30;;;18.20;99.90;;;;;;10497396;28;20196;-78
2021/06/09 01:55:43;;;;;;;29.57;26.67;;;18.20;99.90;;;;;;10482177;28;20220;-79
2021/06/09 02:00:46;;;;;;;31.77;28.87;;;18.20;99.90;;;;;;10499645;28;20224;-79
2021/06/09 02:05:48;;;;;;;32.60;29.60;;;18.30;99.90;;;;;;10498311;28;20722;-78
2021/06/09 02:10:51;;;;;;;31.43;28.37;;;18.30;99.90;;;;;;10499375;28;20249;-78
2021/06/09 02:15:54;;;;;;;31.20;28.47;;;18.30;99.90;;;;;;10498670;28;20595;-79
2021/06/09 02:20:58;;;;;;;29.30;26.77;;;18.30;99.90;;;;;;10493992;28;20660;-78
2021/06/09 02:26:01;;;;;;;28.53;26.20;;;18.40;99.90;;;;;;10498111;28;20661;-79
2021/06/09 02:31:03;;;;;;;27.60;25.20;;;18.40;99.90;;;;;;10498145;28;20246;-78
2021/06/09 02:36:06;;;;;;;28.50;26.10;;;18.40;99.90;;;;;;10498175;28;20232;-78
2021/06/09 02:41:09;;;;;;;25.97;23.67;;;18.40;99.90;;;;;;10484146;28;20208;-78
2021/06/09 02:46:14;;;;;;;26.73;24.30;;;18.40;99.90;;;;;;10496681;28;20295;-78
2021/06/09 02:51:19;;;;;;;28.57;26.00;;;18.40;99.90;;;;;;10495887;28;20692;-78
2021/06/09 02:56:29;;;;;;;29.83;27.07;;;18.40;99.90;;;;;;10495605;28;20282;-79
2021/06/09 03:01:34;;;;;;;27.23;25.03;;;18.40;99.90;;;;;;10499736;28;20295;-78
2021/06/09 03:06:41;;;;;;;26.80;24.37;;;18.40;99.90;;;;;;10497579;28;20303;-79
2021/06/09 03:11:53;;;;;;;28.20;25.70;;;18.40;99.90;;;;;;10496068;28;20679;-79
2021/06/09 03:16:59;;;;;;;28.23;25.50;;;18.30;99.90;;;;;;10496440;28;20688;-79
2021/06/09 03:22:07;;;;;;;29.07;26.50;;;18.30;99.90;;;;;;10496928;28;20239;-79
2021/06/09 03:27:18;;;;;;;30.13;27.43;;;18.30;99.90;;;;;;10505734;28;20220;-78
2021/06/09 03:32:27;;;;;;;28.27;25.97;;;18.30;99.90;;;;;;10504825;28;20211;-79
2021/06/09 03:37:33;;;;;;;27.57;25.07;;;18.30;99.90;;;;;;10503599;28;20257;-78
2021/06/09 03:42:39;;;;;;;30.87;28.17;;;18.30;99.90;;;;;;10502461;28;20295;-78
2021/06/09 03:47:41;;;;;;;29.73;27.13;;;18.30;99.90;;;;;;10503626;28;20706;-78
2021/06/09 03:52:46;;;;;;;31.37;28.77;;;18.30;99.90;;;;;;10496370;28;20247;-78
2021/06/09 03:57:50;;;;;;;29.77;27.07;;;18.30;99.90;;;;;;10502551;28;20230;-79
2021/06/09 04:02:53;;;;;;;28.50;26.00;;;18.30;99.90;;;;;;10490541;28;20292;-77
2021/06/09 04:07:58;;;;;;;27.10;24.77;;;18.40;99.90;;;;;;10485439;28;20231;-77
2021/06/09 04:13:02;;;;;;;27.13;24.87;;;18.40;99.90;;;;;;10501279;28;20588;-78
2021/06/09 04:18:05;;;;;;;26.90;24.70;;;18.40;99.90;;;;;;10499633;28;20376;-78
2021/06/09 04:23:09;;;;;;;26.00;23.60;;;18.40;99.90;;;;;;10491780;28;20231;-78
2021/06/09 04:28:13;;;;;;;26.63;24.43;;;18.40;99.90;;;;;;10471374;22;99712;-79
2021/06/09 04:33:14;;;;;;;26.00;23.90;;;18.40;99.90;;;;;;10437454;28;20194;-78
2021/06/09 04:38:18;;;;;;;26.93;24.73;;;18.50;99.90;;;;;;10441020;28;20264;-79
2021/06/09 04:43:24;;;;;;;26.80;24.40;;;18.60;99.90;;;;;;10458408;28;20209;-78
2021/06/09 04:48:27;;;;;;;25.57;23.47;;;18.60;99.90;;;;;;10451576;28;20271;-78
2021/06/09 04:53:28;;;;;;;26.90;24.60;;;18.70;99.90;;;;;;10456247;28;20236;-79
2021/06/09 04:58:31;;;;;;;25.57;23.40;;;18.80;99.90;;;;;;10457665;28;20225;-80
2021/06/09 05:03:33;;;;;;;26.30;24.10;;;18.90;99.90;;;;;;10422317;28;20693;-79
2021/06/09 05:08:35;;;;;;;25.13;23.03;;;19.00;99.90;;;;;;10426792;28;20617;-79
2021/06/09 05:13:41;;;;;;;28.10;25.70;;;19.10;99.90;;;;;;10422720;28;20324;-79
2021/06/09 05:18:45;;;;;;;25.67;23.57;;;19.20;99.90;;;;;;10420941;28;20205;-79
2021/06/09 05:23:52;;;;;;;26.43;24.10;;;19.30;99.90;;;;;;10417562;28;20193;-79
2021/06/09 05:29:00;;;;;;;25.33;23.17;;;19.40;99.90;;;;;;10426880;28;20231;-79
2021/06/09 05:34:03;;;;;;;25.00;22.90;;;19.50;99.90;;;;;;10435083;28;20295;-80
2021/06/09 05:39:05;;;;;;;25.30;22.90;;;19.70;99.90;;;;;;10429598;28;20205;-78
2021/06/09 05:44:08;;;;;;;25.30;22.93;;;19.80;99.90;;;;;;10446756;28;20797;-79
2021/06/09 05:49:18;;;;;;;26.00;23.80;;;20.00;99.90;;;;;;10443560;28;20198;-78
2021/06/09 05:54:20;;;;;;;23.43;21.43;;;20.20;99.90;;;;;;10456513;28;20590;-79
2021/06/09 05:59:23;;;;;;;22.50;20.70;;;20.50;99.90;;;;;;10454785;28;20288;-79
2021/06/09 06:04:26;;;;;;;22.67;20.77;;;20.70;99.90;;;;;;10441267;28;20692;-79
2021/06/09 06:09:27;;;;;;;22.77;20.87;;;20.80;99.90;;;;;;10430897;28;20747;-79
2021/06/09 06:14:31;;;;;;;22.70;20.50;;;20.90;99.90;;;;;;10455463;28;20295;-79
2021/06/09 06:19:37;;;;;;;22.97;20.90;;;21.00;99.90;;;;;;10431581;28;20201;-79
2021/06/09 06:24:40;;;;;;;23.67;21.37;;;21.10;99.90;;;;;;10452700;28;20252;-79
2021/06/09 06:29:44;;;;;;;22.60;20.50;;;21.20;99.90;;;;;;10456349;28;20622;-79
2021/06/09 06:34:49;;;;;;;20.53;18.70;;;21.40;99.90;;;;;;10452946;28;20733;-79
2021/06/09 06:39:51;;;;;;;21.60;19.70;;;21.60;99.90;;;;;;10429256;28;20747;-79
2021/06/09 06:44:54;;;;;;;23.00;20.80;;;21.80;99.90;;;;;;10454244;28;20654;-79
2021/06/09 06:49:57;;;;;;;21.97;20.07;;;21.90;99.90;;;;;;10446795;28;20205;-79
2021/06/09 06:54:59;;;;;;;18.43;16.90;;;22.00;99.90;;;;;;10453411;28;20708;-79
2021/06/09 07:00:09;;;;;;;20.30;18.30;;;22.10;99.90;;;;;;10452196;28;20251;-79
2021/06/09 07:05:12;;;;;;;18.80;17.30;;;22.20;99.90;;;;;;10425720;28;20221;-79
2021/06/09 07:10:16;;;;;;;17.93;16.47;;;22.30;99.90;;;;;;10417218;28;20201;-79
2021/06/09 07:15:21;;;;;;;19.10;17.50;;;22.30;99.90;;;;;;10419526;28;20234;-79
2021/06/09 07:20:26;;;;;;;20.10;18.20;;;22.20;99.90;;;;;;10417487;28;20226;-78
2021/06/09 07:25:30;;;;;;;19.43;17.73;;;22.10;99.90;;;;;;10402846;28;20260;-79
2021/06/09 07:30:35;;;;;;;18.83;17.23;;;22.00;99.90;;;;;;10418329;28;20205;-79
2021/06/09 07:35:37;;;;;;;17.53;15.93;;;22.10;99.90;;;;;;10421055;28;20220;-79
2021/06/09 07:40:43;;;;;;;18.57;17.07;;;22.40;99.90;;;;;;10415082;28;20662;-79
2021/06/09 07:45:49;;;;;;;19.80;17.90;;;22.60;99.90;;;;;;10417573;28;20318;-79
2021/06/09 07:50:54;;;;;;;19.23;17.63;;;22.70;99.90;;;;;;10415699;28;20194;-78
2021/06/09 07:55:56;;;;;;;20.13;18.33;;;23.00;99.90;;;;;;10417789;28;20292;-80
2021/06/09 08:01:01;;;;;;;22.57;20.57;;;23.20;99.90;;;;;;10411779;28;20755;-80
2021/06/09 08:06:04;;;;;;;20.80;18.90;;;23.40;99.90;;;;;;10424273;28;20810;-79
2021/06/09 08:11:07;;;;;;;22.67;20.50;;;23.50;99.90;;;;;;10418811;28;20202;-79
2021/06/09 08:16:15;;;;;;;18.33;16.63;;;24.10;99.90;;;;;;10455774;28;20743;-79
2021/06/09 08:21:20;;;;;;;20.13;18.40;;;24.60;99.90;;;;;;10450031;28;20205;-79
2021/06/09 08:26:24;;;;;;;17.63;16.00;;;25.30;99.90;;;;;;10448633;28;20627;-79
2021/06/09 08:31:29;;;;;;;21.20;19.50;;;25.70;99.90;;;;;;10457608;28;20198;-78
2021/06/09 08:36:32;;;;;;;20.17;18.40;;;26.20;99.90;;;;;;10462787;28;20225;-79
2021/06/09 08:41:36;;;;;;;18.77;17.07;;;26.40;99.90;;;;;;10452477;28;20205;-78
2021/06/09 08:46:39;;;;;;;19.07;17.33;;;26.40;99.90;;;;;;10459196;28;20678;-79
2021/06/09 08:51:41;;;;;;;15.53;14.23;;;26.70;99.90;;;;;;10450642;28;20236;-79
2021/06/09 08:56:55;;;;;;;19.00;17.23;;;27.20;99.90;;;;;;10462551;28;20225;-79
2021/06/09 09:01:58;;;;;;;16.57;15.13;;;27.90;99.90;;;;;;10458428;28;20228;-80
2021/06/09 09:07:07;;;;;;;18.50;16.90;;;27.90;99.90;;;;;;10452125;28;20217;-79
2021/06/09 09:12:09;;;;;;;18.77;17.13;;;28.20;99.90;;;;;;10444997;28;20201;-80
2021/06/09 09:17:14;;;;;;;17.83;16.33;;;28.80;99.90;;;;;;10460703;28;20641;-80
2021/06/09 09:22:18;;;;;;;18.43;16.87;;;29.40;99.90;;;;;;10458124;28;20280;-80
2021/06/09 09:27:27;;;;;;;18.93;17.10;;;29.90;99.50;;;;;;10458693;28;20249;-80
2021/06/09 09:32:31;;;;;;;17.90;15.93;;;30.10;97.20;;;;;;10457088;28;20784;-79
2021/06/09 09:37:33;;;;;;;17.80;16.30;;;29.60;97.80;;;;;;10452383;28;20279;-80
2021/06/09 09:42:35;;;;;;;15.90;14.67;;;29.70;97.50;;;;;;10451129;28;20205;-80
2021/06/09 09:47:38;;;;;;;14.00;12.93;;;30.30;96.50;;;;;;10452393;28;20594;-80
2021/06/09 09:52:48;;;;;;;16.60;15.10;;;31.40;93.80;;;;;;10437002;28;21064;-79
2021/06/09 09:57:49;;;;;;;14.50;13.33;;;32.80;92.00;;;;;;10420872;28;20224;-80
2021/06/09 10:03:11;;;;;;;15.23;14.03;;;34.10;85.00;;;;;;10427811;28;20193;-79
2021/06/09 10:08:15;;;;;;;13.10;12.10;;;35.40;76.20;;;;;;10425213;28;20291;-80
2021/06/09 10:13:19;;;;;;;15.53;14.33;;;36.30;70.60;;;;;;10427533;28;20586;-80
2021/06/09 10:18:25;;;;;;;16.67;15.27;;;36.90;65.20;;;;;;10444830;28;20248;-79
2021/06/09 10:23:39;;;;;;;15.33;14.17;;;37.50;63.40;;;;;;10460938;28;20279;-80
2021/06/09 10:28:59;;;;;;;15.07;13.93;;;35.60;64.70;;;;;;10458408;28;20207;-80
2021/06/09 10:34:03;;;;;;;20.37;18.53;;;33.40;68.60;;;;;;10461877;28;20224;-80
2021/06/09 10:39:05;;;;;;;19.00;17.33;;;31.60;72.70;;;;;;10435670;28;20268;-80
2021/06/09 10:44:09;;;;;;;21.83;20.03;;;30.20;78.00;;;;;;10421953;28;20253;-79
2021/06/09 10:49:15;;;;;;;20.00;18.30;;;29.00;80.30;;;;;;10434027;28;20621;-80
2021/06/09 10:54:24;;;;;;;20.73;18.90;;;28.00;86.20;;;;;;10440223;28;20225;-78
2021/06/09 10:59:31;;;;;;;17.10;15.70;;;27.30;85.80;;;;;;10433032;28;20224;-79
2021/06/09 11:04:39;;;;;;;20.17;18.37;;;26.60;89.90;;;;;;10442106;28;20217;-79
2021/06/09 11:09:44;;;;;;;17.17;15.67;;;26.20;90.00;;;;;;10453645;28;20201;-79
2021/06/09 11:14:47;;;;;;;17.50;16.10;;;25.90;89.70;;;;;;10449523;28;20225;-79
2021/06/09 11:19:50;;;;;;;16.83;15.43;;;25.60;90.60;;;;;;10441475;28;20232;-79
2021/06/09 11:25:17;;;;;;;15.13;13.93;;;25.40;93.00;;;;;;10448144;28;20284;-79
2021/06/09 11:30:48;;;;;;;13.07;12.07;;;25.30;92.10;;;;;;10440602;28;20215;-79
2021/06/09 11:35:52;;;;;;;13.50;12.30;;;25.30;92.00;;;;;;10448718;28;20235;-79
2021/06/09 11:40:58;;;;;;;13.67;12.63;;;25.40;93.70;;;;;;10448431;28;20297;-79
2021/06/09 11:46:02;;;;;;;12.87;11.87;;;25.60;92.00;;;;;;10431132;28;20213;-79
2021/06/09 11:51:28;;;;;;;12.53;11.63;;;25.80;91.30;;;;;;10463208;28;20201;-80
2021/06/09 11:56:32;;;;;;;12.33;11.23;;;26.00;90.20;;;;;;10461435;28;20632;-79
2021/06/09 12:01:39;;;;;;;12.17;11.17;;;26.10;93.30;;;;;;10460098;28;20210;-80
2021/06/09 12:06:45;;;;;;;11.57;10.67;;;26.20;91.30;;;;;;10443425;28;20221;-80
2021/06/09 12:11:49;;;;;;;13.23;12.23;;;26.40;92.30;;;;;;10460380;28;20205;-78
2021/06/09 12:16:53;;;;;;;14.70;13.33;;;26.60;92.00;;;;;;10456824;28;20279;-80
2021/06/09 12:21:59;;;;;;;14.50;13.40;;;26.70;93.30;;;;;;10462797;28;20232;-79
2021/06/09 12:27:04;;;;;;;15.67;14.47;;;26.90;93.20;;;;;;10454698;28;20607;-78
2021/06/09 12:32:20;;;;;;;11.50;10.57;;;26.90;94.10;;;;;;10456956;28;20208;-78
2021/06/09 12:37:24;;;;;;;15.70;14.40;;;26.70;93.30;;;;;;10457305;28;20620;-78
2021/06/09 12:42:27;;;;;;;14.13;12.93;;;26.50;92.90;;;;;;10450703;28;20560;-79
2021/06/09 12:47:31;;;;;;;13.37;12.20;;;26.30;92.20;;;;;;10443102;28;20244;-78
2021/06/09 12:52:34;;;;;;;11.47;10.57;;;26.20;93.20;;;;;;10457708;28;20673;-79
2021/06/09 12:57:37;;;;;;;13.30;12.20;;;26.10;93.60;;;;;;10453239;28;20607;-79
2021/06/09 13:02:39;;;;;;;11.50;10.50;;;26.20;90.30;;;;;;10438748;28;20681;-79
2021/06/09 13:07:42;;;;;;;12.57;11.40;;;26.30;90.40;;;;;;10454882;28;20303;-79
2021/06/09 13:12:51;;;;;;;10.97;10.03;;;26.30;87.90;;;;;;10456055;28;20229;-79
2021/06/09 13:17:53;;;;;;;10.07;9.37;;;26.20;87.10;;;;;;10442936;28;20693;-79
2021/06/09 13:22:56;;;;;;;10.57;9.60;;;26.10;87.50;;;;;;10460691;28;20276;-78
2021/06/09 13:28:22;;;;;;;11.20;9.90;;;26.10;89.30;;;;;;10458036;28;20316;-79
2021/06/09 13:33:31;;;;;;;9.33;8.57;;;26.20;87.90;;;;;;10460348;28;20273;-79
2021/06/09 13:38:38;;;;;;;7.83;7.33;;;26.00;88.60;;;;;;10462809;28;20229;-78
2021/06/09 13:43:40;;;;;;;8.23;7.63;;;26.00;87.30;;;;;;10463599;28;20200;-79
2021/06/09 13:48:49;;;;;;;7.43;6.83;;;25.80;88.50;;;;;;10461252;28;20276;-78
2021/06/09 13:53:54;;;;;;;6.07;5.63;;;25.60;90.40;;;;;;10455550;28;20564;-79
2021/06/09 13:59:11;;;;;;;6.57;6.17;;;25.40;86.90;;;;;;10437405;28;20256;-78
2021/06/09 14:04:13;;;;;;;6.13;5.73;;;25.20;84.30;;;;;;10454574;28;20217;-79
2021/06/09 14:09:16;;;;;;;5.50;5.10;;;25.00;90.80;;;;;;10454565;28;20189;-79
2021/06/09 14:14:22;;;;;;;5.87;5.40;;;24.70;87.40;;;;;;10454158;28;20229;-78
2021/06/09 14:19:25;;;;;;;6.23;5.83;;;24.50;92.90;;;;;;10452952;28;20290;-78
2021/06/09 14:24:28;;;;;;;6.73;6.23;;;24.20;94.10;;;;;;10452918;28;20616;-79
2021/06/09 14:29:29;;;;;;;6.57;5.70;;;24.00;97.70;;;;;;10440811;28;20287;-79
2021/06/09 14:34:40;;;;;;;6.23;5.83;;;23.90;97.20;;;;;;10443456;28;20228;-79
2021/06/09 14:39:43;;;;;;;6.30;5.70;;;23.90;95.80;;;;;;10453289;28;20223;-78
2021/06/09 14:44:46;;;;;;;5.90;5.50;;;24.00;95.00;;;;;;10452428;28;20216;-78
2021/06/09 14:49:50;;;;;;;5.50;5.13;;;24.20;94.80;;;;;;10451976;28;20252;-78
2021/06/09 14:54:55;;;;;;;6.80;5.60;;;24.20;92.70;;;;;;10452302;28;20249;-78
2021/06/09 15:00:00;;;;;;;6.53;6.10;;;24.10;95.20;;;;;;10446455;28;20280;-79
2021/06/09 15:05:04;;;;;;;7.23;6.73;;;24.00;97.00;;;;;;10451619;28;20217;-79
2021/06/09 15:10:08;;;;;;;7.37;6.77;;;23.90;94.60;;;;;;10451876;28;20209;-79
2021/06/09 15:15:11;;;;;;;8.07;7.57;;;23.80;93.90;;;;;;10450481;28;20224;-78
2021/06/09 15:20:16;;;;;;;8.53;7.93;;;23.70;98.70;;;;;;10450191;28;20640;-79
2021/06/09 15:25:19;;;;;;;8.00;7.40;;;23.70;99.90;;;;;;10451502;28;20331;-79
2021/06/09 15:30:21;;;;;;;8.63;8.03;;;23.60;98.10;;;;;;10449394;28;21057;-78
2021/06/09 15:35:23;;;;;;;8.13;7.60;;;23.50;99.90;;;;;;10449539;28;20217;-77
2021/06/09 15:40:29;;;;;;;8.20;7.60;;;23.50;99.90;;;;;;10452215;28;20251;-78
2021/06/09 15:45:31;;;;;;;7.93;7.37;;;23.60;99.90;;;;;;10454760;28;20221;-78
2021/06/09 15:50:37;;;;;;;8.43;7.83;;;23.70;99.90;;;;;;10441421;28;20226;-78
2021/06/09 15:55:40;;;;;;;9.83;9.07;;;23.80;99.90;;;;;;10459091;28;20241;-79
2021/06/09 16:00:45;;;;;;;8.97;8.27;;;23.90;99.90;;;;;;10450535;28;20197;-79
2021/06/09 16:05:46;;;;;;;9.07;8.30;;;24.00;99.90;;;;;;10452642;28;20816;-80
2021/06/09 16:10:49;;;;;;;9.13;8.17;;;24.00;99.90;;;;;;10449885;28;20208;-79
2021/06/09 16:15:51;;;;;;;9.73;9.03;;;24.00;99.90;;;;;;10447280;28;20225;-78
2021/06/09 16:20:53;;;;;;;8.77;8.17;;;24.00;99.90;;;;;;10447119;28;20238;-79
2021/06/09 16:25:56;;;;;;;9.67;8.80;;;23.90;99.90;;;;;;10444440;28;20324;-78
2021/06/09 16:30:58;;;;;;;8.50;7.90;;;23.80;99.90;;;;;;10445871;28;20713;-78
2021/06/09 16:36:00;;;;;;;8.20;7.60;;;23.70;99.90;;;;;;10459024;28;20222;-78
2021/06/09 16:41:23;;;;;;;8.67;8.07;;;23.60;99.90;;;;;;10458224;28;20250;-79
2021/06/09 16:46:27;;;;;;;8.70;8.10;;;23.50;99.90;;;;;;10451016;28;20213;-79
2021/06/09 16:51:29;;;;;;;10.50;9.47;;;23.40;99.90;;;;;;10479213;22;20255;-79
2021/06/09 16:56:43;;;;;;;9.53;8.83;;;23.40;99.90;;;;;;10457483;28;20577;-80
2021/06/09 17:01:45;;;;;;;9.83;9.13;;;23.40;99.90;;;;;;10434117;28;20221;-78
2021/06/09 17:06:46;;;;;;;11.17;10.27;;;23.40;99.90;;;;;;10431553;28;20220;-77
2021/06/09 17:11:50;;;;;;;10.37;9.57;;;23.50;99.90;;;;;;10441535;28;20263;-81
2021/06/09 17:16:52;;;;;;;9.93;9.23;;;23.50;99.90;;;;;;10441923;28;20213;-79
2021/06/09 17:21:53;;;;;;;10.77;9.97;;;23.50;99.90;;;;;;10427019;28;20788;-79
2021/06/09 17:26:57;;;;;;;10.10;9.30;;;23.50;99.90;;;;;;10420934;28;20236;-79
2021/06/09 17:31:59;;;;;;;10.67;9.77;;;23.30;99.90;;;;;;10432887;28;20225;-78
2021/06/09 17:37:01;;;;;;;10.40;9.40;;;23.30;99.90;;;;;;10434384;28;20214;-79
2021/06/09 17:42:04;;;;;;;11.40;10.50;;;23.10;99.90;;;;;;10440043;28;20216;-79
2021/06/09 17:47:06;;;;;;;11.40;10.60;;;23.00;99.90;;;;;;10450695;28;20189;-79
2021/06/09 17:52:08;;;;;;;11.47;10.57;;;23.00;99.90;;;;;;10436256;28;20799;-79
2021/06/09 17:57:11;;;;;;;10.60;9.83;;;22.80;99.90;;;;;;10419384;28;20221;-78
2021/06/09 18:02:17;;;;;;;11.67;10.77;;;22.80;99.90;;;;;;10417776;28;20222;-78
2021/06/09 18:07:20;;;;;;;11.17;10.37;;;22.70;99.90;;;;;;10447669;28;20649;-79
2021/06/09 18:12:23;;;;;;;10.30;9.50;;;22.60;99.90;;;;;;10442184;28;20221;-78
2021/06/09 18:17:25;;;;;;;10.77;9.97;;;22.50;99.90;;;;;;10437425;28;20218;-79
2021/06/09 18:22:26;;;;;;;9.43;8.73;;;22.50;99.90;;;;;;10428084;28;20228;-81
2021/06/09 18:27:29;;;;;;;10.87;10.07;;;22.40;99.90;;;;;;10453070;28;20201;-80
2021/06/09 18:32:32;;;;;;;10.50;9.50;;;22.40;99.90;;;;;;10445280;28;20222;-80
2021/06/09 18:37:34;;;;;;;10.00;9.30;;;22.30;99.90;;;;;;10423640;28;20592;-80
2021/06/09 18:42:37;;;;;;;10.90;9.93;;;22.30;99.90;;;;;;10450263;28;20225;-80
2021/06/09 18:47:39;;;;;;;11.57;10.57;;;22.10;99.90;;;;;;10443014;28;20200;-80
2021/06/09 18:52:42;;;;;;;10.43;9.53;;;22.00;99.90;;;;;;10427501;28;20236;-78
2021/06/09 18:57:46;;;;;;;11.20;10.23;;;21.90;99.90;;;;;;10439317;28;20252;-80
2021/06/09 19:02:48;;;;;;;10.73;9.93;;;21.80;99.90;;;;;;10441659;28;20268;-79
2021/06/09 19:07:51;;;;;;;12.03;11.03;;;21.70;99.90;;;;;;10427431;28;20748;-80
2021/06/09 19:12:54;;;;;;;11.30;10.50;;;21.70;99.90;;;;;;10449806;28;20225;-80
2021/06/09 19:17:56;;;;;;;10.83;9.83;;;21.60;99.90;;;;;;10421752;28;20325;-80
2021/06/09 19:23:00;;;;;;;10.30;9.60;;;21.60;99.90;;;;;;10417606;28;20661;-80
2021/06/09 19:28:04;;;;;;;11.93;10.90;;;21.50;99.90;;;;;;10433704;28;20665;-80
2021/06/09 19:33:06;;;;;;;10.70;9.80;;;21.40;99.90;;;;;;10417442;28;20205;-79
2021/06/09 19:38:08;;;;;;;12.13;11.27;;;21.30;99.90;;;;;;10432778;28;20220;-78
2021/06/09 19:43:12;;;;;;;11.67;10.47;;;21.20;99.90;;;;;;10426461;28;20200;-77
2021/06/09 19:48:14;;;;;;;10.63;9.83;;;21.20;99.90;;;;;;10424184;28;20197;-78
2021/06/09 19:53:16;;;;;;;11.47;10.67;;;21.10;99.90;;;;;;10419025;28;20225;-79
2021/06/09 19:58:19;;;;;;;11.77;10.87;;;21.00;99.90;;;;;;10438658;28;20304;-80
2021/06/09 20:03:21;;;;;;;12.27;11.17;;;20.90;99.90;;;;;;10442479;28;20201;-80
2021/06/09 20:08:22;;;;;;;12.23;11.33;;;20.80;99.90;;;;;;10452982;28;20209;-79
2021/06/09 20:13:29;;;;;;;11.77;10.83;;;20.80;99.90;;;;;;10437685;28;20197;-81
2021/06/09 20:18:32;;;;;;;11.97;11.10;;;20.70;99.90;;;;;;10459744;28;20229;-81
2021/06/09 20:23:34;;;;;;;12.07;10.93;;;20.60;99.90;;;;;;10446807;28;20213;-80
2021/06/09 20:28:37;;;;;;;11.30;10.50;;;20.60;99.90;;;;;;10409241;28;20252;-80
2021/06/09 20:33:38;;;;;;;10.83;10.03;;;20.50;99.90;;;;;;10439885;28;20281;-79
2021/06/09 20:38:43;;;;;;;10.70;9.60;;;20.40;99.90;;;;;;10439554;28;20232;-79
2021/06/09 20:43:47;;;;;;;11.33;9.97;;;20.20;99.90;;;;;;10419987;28;20201;-79
2021/06/09 20:48:48;;;;;;;10.37;9.57;;;20.20;99.90;;;;;;10434498;28;20601;-80
2021/06/09 20:53:50;;;;;;;11.27;10.37;;;20.10;99.90;;;;;;10424487;28;20201;-79
2021/06/09 20:58:54;;;;;;;10.40;8.97;;;20.00;99.90;;;;;;10426852;28;20225;-79
2021/06/09 21:03:55;;;;;;;8.87;8.27;;;20.00;99.90;;;;;;10427636;28;20208;-78
2021/06/09 21:08:57;;;;;;;9.80;9.10;;;19.90;99.90;;;;;;10417566;28;20218;-79
2021/06/09 21:14:00;;;;;;;9.53;8.73;;;19.90;99.90;;;;;;10433603;28;20210;-79
2021/06/09 21:19:02;;;;;;;9.27;8.57;;;19.80;99.90;;;;;;10435572;28;20603;-79
2021/06/09 21:24:05;;;;;;;9.07;8.37;;;19.70;99.90;;;;;;10427219;28;20204;-78
2021/06/09 21:29:10;;;;;;;9.63;8.93;;;19.70;99.90;;;;;;10439523;28;20304;-79
2021/06/09 21:34:11;;;;;;;8.73;8.10;;;19.70;99.90;;;;;;10451614;28;20627;-79
2021/06/09 21:39:13;;;;;;;9.97;9.07;;;19.60;99.90;;;;;;10433429;28;20249;-79
2021/06/09 21:44:16;;;;;;;9.00;8.20;;;19.60;99.90;;;;;;10435976;28;20229;-79
2021/06/09 21:49:18;;;;;;;9.13;8.23;;;19.50;99.90;;;;;;10440012;28;20224;-78
2021/06/09 21:54:20;;;;;;;9.20;8.50;;;19.40;99.90;;;;;;10433731;28;20204;-80
2021/06/09 21:59:23;;;;;;;8.40;7.80;;;19.40;99.90;;;;;;10430820;28;20229;-79
2021/06/09 22:04:25;;;;;;;8.90;8.13;;;19.40;99.90;;;;;;10442734;28;20212;-78
2021/06/09 22:09:27;;;;;;;8.77;8.07;;;19.30;99.90;;;;;;10418592;28;20301;-80
2021/06/09 22:14:30;;;;;;;8.40;7.70;;;19.30;99.90;;;;;;10434602;28;20237;-79
2021/06/09 22:19:32;;;;;;;8.17;7.57;;;19.30;99.90;;;;;;10418196;28;20795;-78
2021/06/09 22:24:33;;;;;;;8.27;7.67;;;19.20;99.90;;;;;;10427876;28;20273;-79
2021/06/09 22:29:36;;;;;;;7.43;6.77;;;19.10;99.90;;;;;;10421006;28;20259;-78
2021/06/09 22:34:38;;;;;;;7.80;7.20;;;19.10;99.90;;;;;;10425781;28;20202;-78
2021/06/09 22:39:40;;;;;;;9.63;8.77;;;19.00;99.90;;;;;;10420758;28;20222;-80
2021/06/09 22:44:54;;;;;;;9.30;8.40;;;19.00;99.90;;;;;;10419903;28;20201;-78
2021/06/09 22:49:56;;;;;;;7.13;6.63;;;19.00;99.90;;;;;;10430620;22;20718;-80
2021/06/09 22:54:57;;;;;;;9.63;8.87;;;18.90;99.90;;;;;;10405175;28;20197;-79
2021/06/09 23:00:01;;;;;;;9.83;8.83;;;18.90;99.90;;;;;;10394555;28;20297;-80
2021/06/09 23:05:03;;;;;;;8.53;7.83;;;18.80;99.90;;;;;;10371852;28;20846;-79
2021/06/09 23:10:07;;;;;;;9.40;8.70;;;18.80;99.90;;;;;;10393804;28;20217;-79
2021/06/09 23:15:11;;;;;;;10.07;9.27;;;18.70;99.90;;;;;;10397272;28;20182;-79
2021/06/09 23:20:15;;;;;;;8.70;8.00;;;18.70;99.90;;;;;;10379572;28;20317;-79
2021/06/09 23:25:19;;;;;;;8.30;7.60;;;18.70;99.90;;;;;;10364830;28;20579;-80
2021/06/09 23:30:24;;;;;;;9.00;8.20;;;18.60;99.90;;;;;;10374191;28;20232;-80
2021/06/09 23:35:25;;;;;;;9.43;8.73;;;18.60;99.90;;;;;;10390824;28;20206;-80
2021/06/09 23:40:27;;;;;;;9.43;8.73;;;18.60;99.90;;;;;;10416316;28;20217;-80
2021/06/09 23:45:30;;;;;;;10.37;9.67;;;18.60;99.90;;;;;;10385021;28;20205;-80
2021/06/09 23:55:48;;;;;;;9.30;8.60;;;18.60;99.90;;;;;;10416049;28;20197;-79
